sensor_id;sensor_type;location;lat;lon;timestamp;P1;durP1;ratioP1;P2;durP2;ratioP2
13834;SDS011;6988;52.614;13.500;2023-04-16T00:01:31;27.47;;;20.70;;
13834;SDS011;6988;52.614;13.500;2023-04-16T00:06:23;26.53;;;19.80;;
13834;SDS011;6988;52.614;13.500;2023-04-16T00:11:16;24.83;;;18.80;;
13834;SDS011;6988;52.614;13.500;2023-04-16T00:16:08;26.60;;;20.87;;
13834;SDS011;6988;52.614;13.500;2023-04-16T00:21:01;30.53;;;20.97;;
13834;SDS011;6988;52.614;13.500;2023-04-16T00:25:53;27.73;;;20.73;;
13834;SDS011;6988;52.614;13.500;2023-04-16T00:30:48;25.47;;;19.80;;
13834;SDS011;6988;52.614;13.500;2023-04-16T00:35:40;26.77;;;20.60;;
13834;SDS011;6988;52.614;13.500;2023-04-16T00:40:33;29.27;;;20.10;;
13834;SDS011;6988;52.614;13.500;2023-04-16T00:45:25;25.17;;;19.53;;
13834;SDS011;6988;52.614;13.500;2023-04-16T00:50:17;25.23;;;20.50;;
13834;SDS011;6988;52.614;13.500;2023-04-16T00:55:09;25.43;;;19.20;;
13834;SDS011;6988;52.614;13.500;2023-04-16T01:00:04;26.60;;;21.70;;
13834;SDS011;6988;52.614;13.500;2023-04-16T01:04:57;28.20;;;22.33;;
13834;SDS011;6988;52.614;13.500;2023-04-16T01:09:50;25.77;;;19.97;;
13834;SDS011;6988;52.614;13.500;2023-04-16T01:14:45;25.53;;;21.30;;
13834;SDS011;6988;52.614;13.500;2023-04-16T01:19:39;24.17;;;18.17;;
13834;SDS011;6988;52.614;13.500;2023-04-16T01:24:32;26.23;;;18.30;;
13834;SDS011;6988;52.614;13.500;2023-04-16T01:29:25;24.70;;;18.07;;
13834;SDS011;6988;52.614;13.500;2023-04-16T01:34:20;23.07;;;18.23;;
13834;SDS011;6988;52.614;13.500;2023-04-16T01:39:12;23.60;;;18.40;;
13834;SDS011;6988;52.614;13.500;2023-04-16T01:44:06;23.77;;;17.67;;
13834;SDS011;6988;52.614;13.500;2023-04-16T01:48:58;23.60;;;17.57;;
13834;SDS011;6988;52.614;13.500;2023-04-16T01:53:51;22.23;;;17.77;;
13834;SDS011;6988;52.614;13.500;2023-04-16T01:58:44;24.37;;;16.80;;
13834;SDS011;6988;52.614;13.500;2023-04-16T02:03:38;25.23;;;21.07;;
13834;SDS011;6988;52.614;13.500;2023-04-16T02:08:31;23.80;;;20.37;;
13834;SDS011;6988;52.614;13.500;2023-04-16T02:13:23;26.10;;;18.57;;
13834;SDS011;6988;52.614;13.500;2023-04-16T02:18:15;27.47;;;22.33;;
13834;SDS011;6988;52.614;13.500;2023-04-16T02:23:09;29.40;;;20.50;;
13834;SDS011;6988;52.614;13.500;2023-04-16T02:28:04;30.17;;;23.50;;
13834;SDS011;6988;52.614;13.500;2023-04-16T02:33:00;32.80;;;24.70;;
13834;SDS011;6988;52.614;13.500;2023-04-16T02:37:55;37.37;;;25.37;;
13834;SDS011;6988;52.614;13.500;2023-04-16T02:42:48;32.67;;;24.83;;
13834;SDS011;6988;52.614;13.500;2023-04-16T02:47:40;35.63;;;25.13;;
13834;SDS011;6988;52.614;13.500;2023-04-16T02:52:32;31.63;;;23.97;;
13834;SDS011;6988;52.614;13.500;2023-04-16T02:57:23;34.13;;;24.83;;
13834;SDS011;6988;52.614;13.500;2023-04-16T03:02:17;33.93;;;26.17;;
13834;SDS011;6988;52.614;13.500;2023-04-16T03:07:09;33.83;;;24.40;;
13834;SDS011;6988;52.614;13.500;2023-04-16T03:12:01;31.93;;;23.93;;
13834;SDS011;6988;52.614;13.500;2023-04-16T03:16:54;30.40;;;22.90;;
13834;SDS011;6988;52.614;13.500;2023-04-16T03:21:47;35.20;;;25.33;;
13834;SDS011;6988;52.614;13.500;2023-04-16T03:26:41;29.53;;;23.03;;
13834;SDS011;6988;52.614;13.500;2023-04-16T03:31:34;32.37;;;23.67;;
13834;SDS011;6988;52.614;13.500;2023-04-16T03:36:26;30.00;;;22.13;;
13834;SDS011;6988;52.614;13.500;2023-04-16T03:41:19;34.07;;;24.77;;
13834;SDS011;6988;52.614;13.500;2023-04-16T03:46:11;33.87;;;23.67;;
13834;SDS011;6988;52.614;13.500;2023-04-16T03:51:03;32.97;;;24.20;;
13834;SDS011;6988;52.614;13.500;2023-04-16T03:55:56;35.33;;;25.07;;
13834;SDS011;6988;52.614;13.500;2023-04-16T04:00:52;33.90;;;24.27;;
13834;SDS011;6988;52.614;13.500;2023-04-16T04:05:45;34.43;;;23.73;;
13834;SDS011;6988;52.614;13.500;2023-04-16T04:10:40;31.77;;;24.23;;
13834;SDS011;6988;52.614;13.500;2023-04-16T04:15:34;32.73;;;24.47;;
13834;SDS011;6988;52.614;13.500;2023-04-16T04:20:28;37.33;;;26.17;;
13834;SDS011;6988;52.614;13.500;2023-04-16T04:25:20;34.20;;;24.50;;
13834;SDS011;6988;52.614;13.500;2023-04-16T04:30:13;37.27;;;24.73;;
13834;SDS011;6988;52.614;13.500;2023-04-16T04:35:05;35.33;;;26.23;;
13834;SDS011;6988;52.614;13.500;2023-04-16T04:40:00;37.50;;;25.27;;
13834;SDS011;6988;52.614;13.500;2023-04-16T04:44:52;38.30;;;25.40;;
13834;SDS011;6988;52.614;13.500;2023-04-16T04:49:44;37.67;;;26.13;;
13834;SDS011;6988;52.614;13.500;2023-04-16T04:54:36;34.67;;;24.50;;
13834;SDS011;6988;52.614;13.500;2023-04-16T04:59:32;37.57;;;25.87;;
13834;SDS011;6988;52.614;13.500;2023-04-16T05:04:24;41.33;;;25.87;;
13834;SDS011;6988;52.614;13.500;2023-04-16T05:09:16;38.10;;;24.50;;
13834;SDS011;6988;52.614;13.500;2023-04-16T05:14:07;37.23;;;24.13;;
13834;SDS011;6988;52.614;13.500;2023-04-16T05:19:01;38.37;;;21.80;;
13834;SDS011;6988;52.614;13.500;2023-04-16T05:23:53;35.13;;;24.63;;
13834;SDS011;6988;52.614;13.500;2023-04-16T05:28:45;36.07;;;23.67;;
13834;SDS011;6988;52.614;13.500;2023-04-16T05:33:37;36.40;;;23.47;;
13834;SDS011;6988;52.614;13.500;2023-04-16T05:38:30;32.67;;;23.60;;
13834;SDS011;6988;52.614;13.500;2023-04-16T05:43:22;34.30;;;23.70;;
13834;SDS011;6988;52.614;13.500;2023-04-16T05:48:13;30.30;;;20.90;;
13834;SDS011;6988;52.614;13.500;2023-04-16T05:53:06;34.53;;;22.73;;
13834;SDS011;6988;52.614;13.500;2023-04-16T05:58:00;35.57;;;23.33;;
13834;SDS011;6988;52.614;13.500;2023-04-16T06:02:53;32.27;;;23.20;;
13834;SDS011;6988;52.614;13.500;2023-04-16T06:07:45;35.27;;;23.70;;
13834;SDS011;6988;52.614;13.500;2023-04-16T06:12:36;33.33;;;22.77;;
13834;SDS011;6988;52.614;13.500;2023-04-16T06:17:29;33.63;;;23.37;;
13834;SDS011;6988;52.614;13.500;2023-04-16T06:22:21;33.97;;;20.53;;
13834;SDS011;6988;52.614;13.500;2023-04-16T06:27:14;32.90;;;23.00;;
13834;SDS011;6988;52.614;13.500;2023-04-16T06:32:06;32.43;;;22.40;;
13834;SDS011;6988;52.614;13.500;2023-04-16T06:36:59;33.77;;;22.97;;
13834;SDS011;6988;52.614;13.500;2023-04-16T06:41:51;32.40;;;21.73;;
13834;SDS011;6988;52.614;13.500;2023-04-16T06:46:43;35.67;;;22.53;;
13834;SDS011;6988;52.614;13.500;2023-04-16T06:51:35;29.67;;;19.73;;
13834;SDS011;6988;52.614;13.500;2023-04-16T07:02:30;30.40;;;19.70;;
13834;SDS011;6988;52.614;13.500;2023-04-16T07:10:21;30.00;;;19.50;;
13834;SDS011;6988;52.614;13.500;2023-04-16T07:14:28;34.17;;;22.80;;
13834;SDS011;6988;52.614;13.500;2023-04-16T07:19:20;30.20;;;21.57;;
13834;SDS011;6988;52.614;13.500;2023-04-16T07:24:12;29.70;;;20.83;;
13834;SDS011;6988;52.614;13.500;2023-04-16T07:29:03;31.03;;;19.20;;
13834;SDS011;6988;52.614;13.500;2023-04-16T07:33:57;35.87;;;22.97;;
13834;SDS011;6988;52.614;13.500;2023-04-16T07:38:49;34.40;;;21.63;;
13834;SDS011;6988;52.614;13.500;2023-04-16T07:43:41;29.83;;;18.27;;
13834;SDS011;6988;52.614;13.500;2023-04-16T07:48:32;33.77;;;19.47;;
13834;SDS011;6988;52.614;13.500;2023-04-16T07:53:26;31.67;;;19.03;;
13834;SDS011;6988;52.614;13.500;2023-04-16T07:58:18;33.77;;;18.57;;
13834;SDS011;6988;52.614;13.500;2023-04-16T08:03:10;29.43;;;20.63;;
13834;SDS011;6988;52.614;13.500;2023-04-16T08:08:01;32.30;;;20.93;;
13834;SDS011;6988;52.614;13.500;2023-04-16T08:12:55;30.57;;;20.67;;
13834;SDS011;6988;52.614;13.500;2023-04-16T08:17:47;34.40;;;21.20;;
13834;SDS011;6988;52.614;13.500;2023-04-16T08:22:39;34.03;;;23.17;;
13834;SDS011;6988;52.614;13.500;2023-04-16T08:27:30;32.77;;;20.93;;
13834;SDS011;6988;52.614;13.500;2023-04-16T08:32:24;34.30;;;20.53;;
13834;SDS011;6988;52.614;13.500;2023-04-16T08:37:16;32.50;;;20.27;;
13834;SDS011;6988;52.614;13.500;2023-04-16T08:42:10;28.10;;;18.80;;
13834;SDS011;6988;52.614;13.500;2023-04-16T08:47:12;29.63;;;20.70;;
13834;SDS011;6988;52.614;13.500;2023-04-16T08:52:07;24.63;;;17.03;;
13834;SDS011;6988;52.614;13.500;2023-04-16T08:57:09;27.10;;;17.80;;
13834;SDS011;6988;52.614;13.500;2023-04-16T09:02:06;24.23;;;16.97;;
13834;SDS011;6988;52.614;13.500;2023-04-16T09:07:03;24.33;;;17.23;;
13834;SDS011;6988;52.614;13.500;2023-04-16T09:12:00;22.07;;;16.03;;
13834;SDS011;6988;52.614;13.500;2023-04-16T09:16:52;24.37;;;19.53;;
13834;SDS011;6988;52.614;13.500;2023-04-16T09:21:45;23.47;;;17.63;;
13834;SDS011;6988;52.614;13.500;2023-04-16T09:26:39;25.50;;;18.27;;
13834;SDS011;6988;52.614;13.500;2023-04-16T09:31:32;27.43;;;18.33;;
13834;SDS011;6988;52.614;13.500;2023-04-16T09:36:24;26.60;;;19.03;;
13834;SDS011;6988;52.614;13.500;2023-04-16T09:41:17;31.27;;;21.80;;
13834;SDS011;6988;52.614;13.500;2023-04-16T09:46:11;31.80;;;19.43;;
13834;SDS011;6988;52.614;13.500;2023-04-16T09:51:04;31.87;;;19.67;;
13834;SDS011;6988;52.614;13.500;2023-04-16T09:55:57;28.87;;;23.03;;
13834;SDS011;6988;52.614;13.500;2023-04-16T10:00:54;29.53;;;20.73;;
13834;SDS011;6988;52.614;13.500;2023-04-16T10:05:48;29.23;;;22.17;;
13834;SDS011;6988;52.614;13.500;2023-04-16T10:10:44;29.53;;;21.13;;
13834;SDS011;6988;52.614;13.500;2023-04-16T10:15:36;28.83;;;20.43;;
13834;SDS011;6988;52.614;13.500;2023-04-16T10:20:29;25.73;;;19.33;;
13834;SDS011;6988;52.614;13.500;2023-04-16T10:25:22;25.00;;;19.07;;
13834;SDS011;6988;52.614;13.500;2023-04-16T10:30:15;29.00;;;21.47;;
13834;SDS011;6988;52.614;13.500;2023-04-16T10:35:08;30.60;;;21.97;;
13834;SDS011;6988;52.614;13.500;2023-04-16T10:40:20;25.00;;;19.77;;
13834;SDS011;6988;52.614;13.500;2023-04-16T10:45:16;25.23;;;21.27;;
13834;SDS011;6988;52.614;13.500;2023-04-16T10:50:14;20.30;;;18.07;;
13834;SDS011;6988;52.614;13.500;2023-04-16T11:00:23;21.13;;;18.43;;
13834;SDS011;6988;52.614;13.500;2023-04-16T11:05:16;21.53;;;17.80;;
13834;SDS011;6988;52.614;13.500;2023-04-16T11:10:12;22.33;;;19.00;;
13834;SDS011;6988;52.614;13.500;2023-04-16T11:15:05;19.37;;;17.27;;
13834;SDS011;6988;52.614;13.500;2023-04-16T11:20:01;19.17;;;16.70;;
13834;SDS011;6988;52.614;13.500;2023-04-16T11:24:54;20.83;;;18.60;;
13834;SDS011;6988;52.614;13.500;2023-04-16T11:29:55;18.67;;;16.60;;
13834;SDS011;6988;52.614;13.500;2023-04-16T11:34:49;15.80;;;14.10;;
13834;SDS011;6988;52.614;13.500;2023-04-16T11:39:48;17.07;;;15.27;;
13834;SDS011;6988;52.614;13.500;2023-04-16T11:44:41;18.03;;;16.20;;
13834;SDS011;6988;52.614;13.500;2023-04-16T11:49:34;17.47;;;15.57;;
13834;SDS011;6988;52.614;13.500;2023-04-16T11:54:26;17.23;;;14.03;;
13834;SDS011;6988;52.614;13.500;2023-04-16T11:59:25;14.73;;;13.20;;
13834;SDS011;6988;52.614;13.500;2023-04-16T12:04:18;14.60;;;13.10;;
13834;SDS011;6988;52.614;13.500;2023-04-16T12:09:23;14.80;;;13.20;;
13834;SDS011;6988;52.614;13.500;2023-04-16T12:14:16;14.10;;;12.43;;
13834;SDS011;6988;52.614;13.500;2023-04-16T12:19:10;11.97;;;10.13;;
13834;SDS011;6988;52.614;13.500;2023-04-16T12:24:03;12.80;;;10.13;;
13834;SDS011;6988;52.614;13.500;2023-04-16T12:29:02;13.73;;;11.00;;
13834;SDS011;6988;52.614;13.500;2023-04-16T12:34:11;13.83;;;10.87;;
13834;SDS011;6988;52.614;13.500;2023-04-16T12:39:04;11.93;;;9.57;;
13834;SDS011;6988;52.614;13.500;2023-04-16T12:44:02;11.53;;;9.63;;
13834;SDS011;6988;52.614;13.500;2023-04-16T12:49:01;11.37;;;8.93;;
13834;SDS011;6988;52.614;13.500;2023-04-16T12:53:54;14.63;;;10.20;;
13834;SDS011;6988;52.614;13.500;2023-04-16T12:58:46;14.27;;;9.23;;
13834;SDS011;6988;52.614;13.500;2023-04-16T13:03:40;13.40;;;10.70;;
13834;SDS011;6988;52.614;13.500;2023-04-16T13:08:32;11.67;;;9.30;;
13834;SDS011;6988;52.614;13.500;2023-04-16T13:13:26;14.17;;;9.83;;
13834;SDS011;6988;52.614;13.500;2023-04-16T13:18:18;12.67;;;10.40;;
13834;SDS011;6988;52.614;13.500;2023-04-16T13:23:10;14.67;;;11.60;;
13834;SDS011;6988;52.614;13.500;2023-04-16T13:28:02;15.37;;;12.80;;
13834;SDS011;6988;52.614;13.500;2023-04-16T13:32:55;12.33;;;10.50;;
13834;SDS011;6988;52.614;13.500;2023-04-16T13:37:47;14.37;;;10.47;;
13834;SDS011;6988;52.614;13.500;2023-04-16T13:42:39;11.77;;;10.23;;
13834;SDS011;6988;52.614;13.500;2023-04-16T13:47:31;12.67;;;10.40;;
13834;SDS011;6988;52.614;13.500;2023-04-16T13:52:25;10.70;;;9.60;;
13834;SDS011;6988;52.614;13.500;2023-04-16T13:57:17;11.17;;;9.47;;
13834;SDS011;6988;52.614;13.500;2023-04-16T14:02:09;10.97;;;9.37;;
13834;SDS011;6988;52.614;13.500;2023-04-16T14:07:02;11.10;;;8.70;;
13834;SDS011;6988;52.614;13.500;2023-04-16T14:11:56;11.40;;;9.27;;
13834;SDS011;6988;52.614;13.500;2023-04-16T14:16:48;10.30;;;9.13;;
13834;SDS011;6988;52.614;13.500;2023-04-16T14:21:40;11.47;;;9.87;;
13834;SDS011;6988;52.614;13.500;2023-04-16T14:26:32;10.47;;;9.47;;
13834;SDS011;6988;52.614;13.500;2023-04-16T14:31:25;12.87;;;11.57;;
13834;SDS011;6988;52.614;13.500;2023-04-16T14:36:17;10.47;;;9.33;;
13834;SDS011;6988;52.614;13.500;2023-04-16T14:41:09;10.53;;;8.73;;
13834;SDS011;6988;52.614;13.500;2023-04-16T14:46:02;10.30;;;9.03;;
13834;SDS011;6988;52.614;13.500;2023-04-16T14:50:56;11.23;;;9.77;;
13834;SDS011;6988;52.614;13.500;2023-04-16T14:55:48;11.80;;;10.40;;
13834;SDS011;6988;52.614;13.500;2023-04-16T15:00:41;10.63;;;9.50;;
13834;SDS011;6988;52.614;13.500;2023-04-16T15:05:33;10.70;;;9.60;;
13834;SDS011;6988;52.614;13.500;2023-04-16T15:10:27;11.80;;;9.93;;
13834;SDS011;6988;52.614;13.500;2023-04-16T15:15:20;12.63;;;10.03;;
13834;SDS011;6988;52.614;13.500;2023-04-16T15:20:12;10.80;;;9.70;;
13834;SDS011;6988;52.614;13.500;2023-04-16T15:25:05;15.60;;;11.33;;
13834;SDS011;6988;52.614;13.500;2023-04-16T15:29:59;12.30;;;10.13;;
13834;SDS011;6988;52.614;13.500;2023-04-16T15:34:51;10.97;;;9.87;;
13834;SDS011;6988;52.614;13.500;2023-04-16T15:39:42;10.00;;;8.93;;
13834;SDS011;6988;52.614;13.500;2023-04-16T15:44:34;14.60;;;10.57;;
13834;SDS011;6988;52.614;13.500;2023-04-16T15:55:22;11.10;;;9.83;;
13834;SDS011;6988;52.614;13.500;2023-04-16T16:00:15;11.47;;;10.27;;
13834;SDS011;6988;52.614;13.500;2023-04-16T16:05:08;12.20;;;10.07;;
13834;SDS011;6988;52.614;13.500;2023-04-16T16:10:01;12.37;;;10.53;;
13834;SDS011;6988;52.614;13.500;2023-04-16T16:14:56;12.53;;;10.27;;
13834;SDS011;6988;52.614;13.500;2023-04-16T16:19:48;11.53;;;9.73;;
13834;SDS011;6988;52.614;13.500;2023-04-16T16:24:41;10.97;;;9.70;;
13834;SDS011;6988;52.614;13.500;2023-04-16T16:29:33;11.03;;;9.90;;
13834;SDS011;6988;52.614;13.500;2023-04-16T16:34:26;14.50;;;10.13;;
13834;SDS011;6988;52.614;13.500;2023-04-16T16:39:18;10.53;;;9.33;;
13834;SDS011;6988;52.614;13.500;2023-04-16T16:44:13;11.97;;;10.23;;
13834;SDS011;6988;52.614;13.500;2023-04-16T16:49:05;12.47;;;10.77;;
13834;SDS011;6988;52.614;13.500;2023-04-16T16:54:00;12.50;;;10.30;;
13834;SDS011;6988;52.614;13.500;2023-04-16T16:58:52;11.50;;;10.17;;
13834;SDS011;6988;52.614;13.500;2023-04-16T17:03:43;11.47;;;9.93;;
13834;SDS011;6988;52.614;13.500;2023-04-16T17:08:35;11.67;;;10.47;;
13834;SDS011;6988;52.614;13.500;2023-04-16T17:13:28;12.53;;;11.20;;
13834;SDS011;6988;52.614;13.500;2023-04-16T17:18:21;12.40;;;11.00;;
13834;SDS011;6988;52.614;13.500;2023-04-16T17:23:13;13.07;;;11.40;;
13834;SDS011;6988;52.614;13.500;2023-04-16T17:28:05;12.00;;;10.80;;
13834;SDS011;6988;52.614;13.500;2023-04-16T17:32:59;12.37;;;10.93;;
13834;SDS011;6988;52.614;13.500;2023-04-16T17:37:53;13.47;;;10.57;;
13834;SDS011;6988;52.614;13.500;2023-04-16T17:42:45;11.50;;;10.13;;
13834;SDS011;6988;52.614;13.500;2023-04-16T17:47:37;12.40;;;10.00;;
13834;SDS011;6988;52.614;13.500;2023-04-16T17:52:31;13.73;;;10.43;;
13834;SDS011;6988;52.614;13.500;2023-04-16T17:57:23;13.13;;;10.20;;
13834;SDS011;6988;52.614;13.500;2023-04-16T18:02:15;12.10;;;9.03;;
13834;SDS011;6988;52.614;13.500;2023-04-16T18:07:07;11.40;;;9.73;;
13834;SDS011;6988;52.614;13.500;2023-04-16T18:12:00;12.50;;;9.63;;
13834;SDS011;6988;52.614;13.500;2023-04-16T18:16:52;16.87;;;10.30;;
13834;SDS011;6988;52.614;13.500;2023-04-16T18:21:44;11.83;;;9.73;;
13834;SDS011;6988;52.614;13.500;2023-04-16T18:26:36;11.47;;;9.40;;
13834;SDS011;6988;52.614;13.500;2023-04-16T18:31:29;11.93;;;10.37;;
13834;SDS011;6988;52.614;13.500;2023-04-16T18:36:21;10.73;;;9.63;;
13834;SDS011;6988;52.614;13.500;2023-04-16T18:41:16;11.60;;;9.93;;
13834;SDS011;6988;52.614;13.500;2023-04-16T18:46:09;12.37;;;10.63;;
13834;SDS011;6988;52.614;13.500;2023-04-16T18:51:03;12.20;;;10.40;;
13834;SDS011;6988;52.614;13.500;2023-04-16T18:55:55;12.40;;;10.80;;
13834;SDS011;6988;52.614;13.500;2023-04-16T19:00:47;14.10;;;10.40;;
13834;SDS011;6988;52.614;13.500;2023-04-16T19:05:42;12.30;;;10.20;;
13834;SDS011;6988;52.614;13.500;2023-04-16T19:10:36;11.43;;;10.33;;
13834;SDS011;6988;52.614;13.500;2023-04-16T19:15:27;11.87;;;10.13;;
13834;SDS011;6988;52.614;13.500;2023-04-16T19:20:39;12.53;;;10.37;;
13834;SDS011;6988;52.614;13.500;2023-04-16T19:25:31;12.53;;;10.20;;
13834;SDS011;6988;52.614;13.500;2023-04-16T19:30:25;17.13;;;11.00;;
13834;SDS011;6988;52.614;13.500;2023-04-16T19:35:17;12.17;;;10.10;;
13834;SDS011;6988;52.614;13.500;2023-04-16T19:40:09;13.07;;;9.83;;
13834;SDS011;6988;52.614;13.500;2023-04-16T19:45:02;10.93;;;9.77;;
13834;SDS011;6988;52.614;13.500;2023-04-16T19:49:56;11.77;;;9.93;;
13834;SDS011;6988;52.614;13.500;2023-04-16T19:54:48;11.40;;;10.20;;
13834;SDS011;6988;52.614;13.500;2023-04-16T19:59:40;12.13;;;9.73;;
13834;SDS011;6988;52.614;13.500;2023-04-16T20:04:32;12.33;;;9.77;;
13834;SDS011;6988;52.614;13.500;2023-04-16T20:09:26;11.00;;;9.63;;
13834;SDS011;6988;52.614;13.500;2023-04-16T20:14:18;11.20;;;9.97;;
13834;SDS011;6988;52.614;13.500;2023-04-16T20:19:09;11.37;;;9.27;;
13834;SDS011;6988;52.614;13.500;2023-04-16T20:24:05;10.63;;;8.73;;
13834;SDS011;6988;52.614;13.500;2023-04-16T20:29:00;11.57;;;9.30;;
13834;SDS011;6988;52.614;13.500;2023-04-16T20:33:53;11.87;;;8.77;;
13834;SDS011;6988;52.614;13.500;2023-04-16T20:38:45;11.27;;;9.23;;
13834;SDS011;6988;52.614;13.500;2023-04-16T20:43:37;12.83;;;9.43;;
13834;SDS011;6988;52.614;13.500;2023-04-16T20:48:32;12.10;;;9.13;;
13834;SDS011;6988;52.614;13.500;2023-04-16T20:53:25;12.03;;;9.40;;
13834;SDS011;6988;52.614;13.500;2023-04-16T20:58:17;11.70;;;9.53;;
13834;SDS011;6988;52.614;13.500;2023-04-16T21:03:09;13.20;;;9.87;;
13834;SDS011;6988;52.614;13.500;2023-04-16T21:08:05;10.93;;;9.40;;
13834;SDS011;6988;52.614;13.500;2023-04-16T21:12:57;11.23;;;9.30;;
13834;SDS011;6988;52.614;13.500;2023-04-16T21:17:48;11.40;;;9.33;;
13834;SDS011;6988;52.614;13.500;2023-04-16T21:22:40;10.53;;;9.23;;
13834;SDS011;6988;52.614;13.500;2023-04-16T21:27:37;12.90;;;10.60;;
13834;SDS011;6988;52.614;13.500;2023-04-16T21:32:29;12.13;;;9.70;;
13834;SDS011;6988;52.614;13.500;2023-04-16T21:37:21;12.60;;;10.00;;
13834;SDS011;6988;52.614;13.500;2023-04-16T21:42:13;13.57;;;9.87;;
13834;SDS011;6988;52.614;13.500;2023-04-16T22:04:38;14.90;;;11.47;;
13834;SDS011;6988;52.614;13.500;2023-04-16T22:09:31;14.63;;;12.03;;
13834;SDS011;6988;52.614;13.500;2023-04-16T22:14:23;13.57;;;11.03;;
13834;SDS011;6988;52.614;13.500;2023-04-16T22:19:15;13.40;;;10.60;;
13834;SDS011;6988;52.614;13.500;2023-04-16T22:24:10;16.03;;;10.97;;
13834;SDS011;6988;52.614;13.500;2023-04-16T22:29:02;14.57;;;11.03;;
13834;SDS011;6988;52.614;13.500;2023-04-16T22:33:53;12.47;;;10.60;;
13834;SDS011;6988;52.614;13.500;2023-04-16T22:38:45;12.70;;;10.37;;
13834;SDS011;6988;52.614;13.500;2023-04-16T22:43:38;12.07;;;10.33;;
13834;SDS011;6988;52.614;13.500;2023-04-16T22:48:32;13.33;;;11.37;;
13834;SDS011;6988;52.614;13.500;2023-04-16T22:53:25;13.40;;;11.33;;
13834;SDS011;6988;52.614;13.500;2023-04-16T22:58:17;14.73;;;11.50;;
13834;SDS011;6988;52.614;13.500;2023-04-16T23:03:10;15.83;;;12.00;;
13834;SDS011;6988;52.614;13.500;2023-04-16T23:08:02;13.07;;;11.27;;
13834;SDS011;6988;52.614;13.500;2023-04-16T23:12:54;15.07;;;11.67;;
13834;SDS011;6988;52.614;13.500;2023-04-16T23:17:46;15.97;;;12.03;;
13834;SDS011;6988;52.614;13.500;2023-04-16T23:23:18;14.70;;;11.20;;
13834;SDS011;6988;52.614;13.500;2023-04-16T23:28:10;14.80;;;12.03;;
13834;SDS011;6988;52.614;13.500;2023-04-16T23:33:02;18.67;;;12.00;;
13834;SDS011;6988;52.614;13.500;2023-04-16T23:37:54;15.47;;;11.80;;
13834;SDS011;6988;52.614;13.500;2023-04-16T23:42:47;16.50;;;12.57;;
13834;SDS011;6988;52.614;13.500;2023-04-16T23:47:39;15.87;;;13.27;;
13834;SDS011;6988;52.614;13.500;2023-04-16T23:52:31;17.03;;;13.10;;
13834;SDS011;6988;52.614;13.500;2023-04-16T23:57:23;16.37;;;12.97;;
